createdAt,value
2023-01-13T00:02:20.047Z,87.70
2023-01-13T00:04:47.354Z,87.70
2023-01-13T00:07:14.290Z,87.40
2023-01-13T00:09:41.053Z,87.60
2023-01-13T00:12:07.939Z,87.50
2023-01-13T00:14:35.297Z,87.40
2023-01-13T00:17:02.474Z,87.30
2023-01-13T00:19:30.873Z,87.40
2023-01-13T00:21:58.826Z,87.40
2023-01-13T00:24:25.766Z,87.30
2023-01-13T00:26:52.988Z,87.60
2023-01-13T00:29:20.019Z,87.60
2023-01-13T00:31:48.574Z,87.60
2023-01-13T00:34:15.407Z,87.60
2023-01-13T00:36:43.711Z,87.60
2023-01-13T00:39:10.669Z,87.70
2023-01-13T00:41:56.228Z,87.80
2023-01-13T00:44:23.101Z,87.90
2023-01-13T00:46:50.096Z,87.90
2023-01-13T00:49:17.109Z,87.90
2023-01-13T00:51:45.590Z,87.80
2023-01-13T00:54:12.533Z,87.80
2023-01-13T00:56:40.984Z,87.70
2023-01-13T00:59:10.577Z,87.80
2023-01-13T01:01:37.934Z,87.70
2023-01-13T01:04:08.970Z,87.70
2023-01-13T01:06:35.862Z,87.80
2023-01-13T01:09:04.590Z,87.70
2023-01-13T01:11:33.072Z,87.70
2023-01-13T01:14:02.129Z,87.60
2023-01-13T01:16:31.287Z,87.60
2023-01-13T01:18:58.567Z,87.60
2023-01-13T01:21:27.084Z,87.70
2023-01-13T01:23:54.481Z,87.70
2023-01-13T01:26:30.665Z,87.70
2023-01-13T01:29:04.707Z,87.70
2023-01-13T01:31:33.377Z,87.80
2023-01-13T01:34:01.579Z,87.80
2023-01-13T01:36:32.368Z,87.80
2023-01-13T01:38:59.961Z,87.80
2023-01-13T01:41:30.266Z,87.80
2023-01-13T01:44:01.551Z,87.70
2023-01-13T01:46:34.191Z,87.70
2023-01-13T01:49:06.944Z,87.80
2023-01-13T01:51:37.297Z,87.70
2023-01-13T01:54:08.477Z,87.60
2023-01-13T01:56:39.554Z,87.60
2023-01-13T01:59:06.458Z,87.30
2023-01-13T02:01:34.553Z,87.40
2023-01-13T02:04:09.643Z,87.30
2023-01-13T02:06:36.776Z,87.30
2023-01-13T02:09:04.044Z,87.30
2023-01-13T02:11:59.302Z,87.10
2023-01-13T02:14:37.447Z,87.10
2023-01-13T02:17:17.743Z,87.10
2023-01-13T02:20:19.405Z,87.10
2023-01-13T02:23:36.434Z,87.10
2023-01-13T02:26:26.438Z,87.00
2023-01-13T02:29:31.356Z,86.90
2023-01-13T02:32:08.810Z,86.90
2023-01-13T02:34:40.360Z,86.80
2023-01-13T02:37:13.128Z,86.70
2023-01-13T02:39:46.271Z,86.60
2023-01-13T02:42:37.921Z,86.50
2023-01-13T02:45:10.686Z,86.60
2023-01-13T02:47:42.234Z,86.50
2023-01-13T02:50:12.169Z,86.50
2023-01-13T02:52:44.336Z,86.40
2023-01-13T02:55:16.809Z,86.40
2023-01-13T02:57:44.969Z,86.30
2023-01-13T03:00:13.530Z,86.30
2023-01-13T03:02:42.234Z,86.30
2023-01-13T03:05:14.476Z,86.20
2023-01-13T03:08:10.612Z,86.10
2023-01-13T03:10:57.051Z,86.20
2023-01-13T03:13:51.094Z,86.10
2023-01-13T03:16:35.732Z,86.20
2023-01-13T03:19:21.611Z,85.90
2023-01-13T03:26:23.712Z,86.00
2023-01-13T03:28:54.398Z,85.80
2023-01-13T03:31:28.707Z,85.60
2023-01-13T03:34:01.013Z,85.60
2023-01-13T03:36:30.748Z,85.60
2023-01-13T03:39:00.149Z,85.60
2023-01-13T03:41:32.191Z,85.60
2023-01-13T03:44:23.547Z,85.70
2023-01-13T03:47:01.323Z,85.60
2023-01-13T03:49:34.467Z,85.60
2023-01-13T03:52:05.345Z,85.60
2023-01-13T03:54:34.370Z,85.40
2023-01-13T03:57:07.718Z,85.40
2023-01-13T03:59:40.002Z,85.30
2023-01-13T04:02:10.704Z,85.30
2023-01-13T04:04:42.596Z,85.20
2023-01-13T04:07:16.675Z,85.10
2023-01-13T04:09:50.354Z,85.10
2023-01-13T04:12:24.883Z,85.00
2023-01-13T04:14:52.853Z,85.00
2023-01-13T04:17:20.636Z,84.90
2023-01-13T04:19:47.482Z,84.80
2023-01-13T04:22:14.424Z,84.70
2023-01-13T04:24:41.387Z,84.60
2023-01-13T04:27:08.301Z,84.60
2023-01-13T04:29:40.378Z,84.30
2023-01-13T04:32:09.326Z,84.20
2023-01-13T04:34:36.180Z,84.30
2023-01-13T04:37:03.507Z,84.10
2023-01-13T04:39:30.543Z,84.00
2023-01-13T04:42:01.239Z,84.00
2023-01-13T04:44:30.405Z,84.00
2023-01-13T04:46:59.813Z,83.90
2023-01-13T04:49:26.821Z,84.00
2023-01-13T04:51:54.158Z,83.90
2023-01-13T04:54:22.748Z,83.90
2023-01-13T04:56:49.573Z,83.90
2023-01-13T04:59:16.645Z,83.80
2023-01-13T05:01:43.995Z,83.90
2023-01-13T05:04:15.426Z,83.90
2023-01-13T05:06:42.751Z,83.90
2023-01-13T05:09:11.950Z,84.00
2023-01-13T05:11:57.206Z,83.90
2023-01-13T05:14:46.445Z,84.00
2023-01-13T05:17:20.505Z,83.90
2023-01-13T05:19:49.117Z,84.00
2023-01-13T05:22:35.092Z,84.00
2023-01-13T05:25:20.632Z,83.90
2023-01-13T05:27:48.066Z,83.90
2023-01-13T05:30:15.467Z,83.90
2023-01-13T05:32:42.316Z,84.00
2023-01-13T05:35:10.725Z,84.00
2023-01-13T05:37:37.799Z,84.10
2023-01-13T05:40:24.635Z,84.20
2023-01-13T05:43:20.301Z,84.30
2023-01-13T05:45:48.070Z,84.30
2023-01-13T05:48:15.657Z,84.30
2023-01-13T05:50:44.937Z,84.30
2023-01-13T05:53:11.799Z,84.30
2023-01-13T05:55:39.752Z,84.30
2023-01-13T05:58:07.481Z,84.30
2023-01-13T06:00:34.325Z,84.40
2023-01-13T06:03:03.133Z,84.40
2023-01-13T06:05:34.297Z,84.50
2023-01-13T06:08:04.735Z,84.50
2023-01-13T06:10:32.062Z,84.50
2023-01-13T06:12:59.448Z,84.50
2023-01-13T06:15:27.601Z,84.40
2023-01-13T06:17:54.686Z,84.40
2023-01-13T06:20:21.919Z,84.40
2023-01-13T06:22:50.642Z,84.40
2023-01-13T06:25:24.633Z,84.30
2023-01-13T06:27:52.365Z,84.10
2023-01-13T06:30:19.394Z,84.00
2023-01-13T06:32:49.800Z,84.00
2023-01-13T06:35:20.910Z,83.90
2023-01-13T06:37:53.253Z,84.00
2023-01-13T06:40:21.817Z,83.90
2023-01-13T06:43:07.282Z,83.80
2023-01-13T06:45:35.788Z,83.90
2023-01-13T06:48:02.652Z,83.70
2023-01-13T06:50:30.320Z,83.70
2023-01-13T06:52:58.446Z,83.80
2023-01-13T06:55:26.933Z,83.80
2023-01-13T06:57:55.841Z,83.70
2023-01-13T07:00:24.674Z,83.90
2023-01-13T07:02:52.241Z,83.90
2023-01-13T07:05:19.943Z,83.80
2023-01-13T07:07:46.798Z,83.80
2023-01-13T07:10:22.403Z,83.70
2023-01-13T07:13:09.313Z,83.40
2023-01-13T07:15:36.898Z,83.50
2023-01-13T07:18:03.942Z,83.50
2023-01-13T07:20:31.529Z,83.30
2023-01-13T07:22:58.750Z,83.00
2023-01-13T07:25:25.993Z,83.00
2023-01-13T07:27:57.050Z,82.90
2023-01-13T07:30:23.986Z,82.80
2023-01-13T07:32:50.778Z,82.80
2023-01-13T07:35:22.939Z,82.80
2023-01-13T07:37:49.877Z,82.60
2023-01-13T07:40:19.597Z,82.50
2023-01-13T07:43:05.226Z,82.50
2023-01-13T07:45:36.715Z,82.30
2023-01-13T07:48:04.077Z,82.40
2023-01-13T07:50:31.011Z,82.30
2023-01-13T07:52:58.362Z,82.20
2023-01-13T07:55:25.889Z,82.00
2023-01-13T07:57:52.728Z,82.00
2023-01-13T08:00:20.827Z,81.80
2023-01-13T08:02:49.394Z,82.00
2023-01-13T08:05:16.487Z,82.00
2023-01-13T08:07:43.409Z,81.90
2023-01-13T08:10:11.200Z,81.70
2023-01-13T08:12:57.113Z,81.70
2023-01-13T08:15:24.287Z,81.80
2023-01-13T08:17:52.677Z,81.70
2023-01-13T08:20:21.206Z,81.80
2023-01-13T08:22:48.178Z,81.70
2023-01-13T08:25:15.442Z,81.60
2023-01-13T08:27:42.323Z,81.60
2023-01-13T08:30:11.379Z,81.50
2023-01-13T08:32:38.633Z,81.60
2023-01-13T08:35:07.969Z,81.30
2023-01-13T08:37:34.970Z,81.20
2023-01-13T08:40:02.044Z,81.00
2023-01-13T08:42:28.932Z,81.00
2023-01-13T08:44:56.059Z,81.00
2023-01-13T08:47:23.477Z,81.20
2023-01-13T08:49:50.286Z,81.30
2023-01-13T08:52:18.703Z,81.50
2023-01-13T08:54:46.445Z,81.70
2023-01-13T08:57:13.671Z,81.80
2023-01-13T08:59:40.992Z,82.00
2023-01-13T09:02:13.992Z,82.20
2023-01-13T09:04:45.308Z,82.30
2023-01-13T09:07:12.249Z,82.50
2023-01-13T09:09:40.490Z,82.60
2023-01-13T09:12:26.117Z,82.70
2023-01-13T09:14:53.472Z,82.90
2023-01-13T09:17:20.367Z,83.00
2023-01-13T09:19:47.719Z,83.20
2023-01-13T09:22:16.818Z,83.30
2023-01-13T09:24:46.145Z,83.30
2023-01-13T09:27:14.296Z,83.40
2023-01-13T09:29:41.515Z,83.50
2023-01-13T09:32:12.450Z,83.60
2023-01-13T09:34:57.909Z,83.60
2023-01-13T09:37:25.675Z,83.70
2023-01-13T09:39:54.004Z,83.70
2023-01-13T09:42:49.476Z,83.70
2023-01-13T09:45:21.719Z,83.80
2023-01-13T09:47:56.501Z,83.80
2023-01-13T09:50:34.181Z,83.70
2023-01-13T09:53:01.755Z,83.60
2023-01-13T09:55:34.715Z,83.60
2023-01-13T09:58:08.743Z,83.60
2023-01-13T10:00:41.369Z,83.60
2023-01-13T10:03:21.263Z,83.70
2023-01-13T10:05:56.403Z,83.70
2023-01-13T10:08:26.309Z,83.70
2023-01-13T10:10:57.719Z,83.70
2023-01-13T10:13:28.345Z,83.70
2023-01-13T10:16:05.981Z,83.70
2023-01-13T10:18:45.810Z,83.70
2023-01-13T10:21:28.117Z,83.60
2023-01-13T10:24:02.637Z,83.50
2023-01-13T10:26:45.872Z,83.60
2023-01-13T10:29:21.581Z,83.60
2023-01-13T10:31:48.651Z,83.70
2023-01-13T10:34:19.099Z,83.70
2023-01-13T10:37:04.888Z,83.80
2023-01-13T10:39:40.983Z,83.80
2023-01-13T10:42:16.463Z,83.80
2023-01-13T10:44:52.194Z,83.80
2023-01-13T10:47:22.916Z,83.70
2023-01-13T10:50:19.653Z,83.80
2023-01-13T10:52:59.317Z,83.70
2023-01-13T10:55:30.552Z,83.60
2023-01-13T10:58:12.676Z,83.60
2023-01-13T11:00:39.645Z,83.50
2023-01-13T11:03:16.634Z,83.50
2023-01-13T11:05:52.014Z,83.50
2023-01-13T11:08:21.601Z,83.30
2023-01-13T11:10:50.621Z,83.10
2023-01-13T11:13:21.857Z,82.80
2023-01-13T11:15:55.443Z,82.80
2023-01-13T11:18:32.268Z,82.50
2023-01-13T11:21:01.511Z,82.40
2023-01-13T11:23:34.432Z,82.20
2023-01-13T11:26:09.136Z,82.30
2023-01-13T11:28:50.411Z,82.00
2023-01-13T11:31:24.801Z,81.80
2023-01-13T11:33:56.840Z,81.60
2023-01-13T11:36:27.702Z,81.80
2023-01-13T11:38:57.082Z,81.70
2023-01-13T11:41:35.903Z,81.80
2023-01-13T11:44:15.141Z,81.90
2023-01-13T11:46:42.976Z,81.80
2023-01-13T11:49:18.422Z,81.90
2023-01-13T11:51:52.046Z,81.80
2023-01-13T11:54:45.949Z,82.00
2023-01-13T11:57:34.930Z,82.00
2023-01-13T12:00:22.691Z,82.10
2023-01-13T12:03:00.206Z,82.10
2023-01-13T12:05:38.280Z,82.20
2023-01-13T12:08:17.210Z,82.30
2023-01-13T12:10:57.481Z,82.00
2023-01-13T12:13:33.191Z,81.90
2023-01-13T12:16:20.832Z,81.90
2023-01-13T12:19:26.794Z,82.00
2023-01-13T12:22:10.598Z,81.70
2023-01-13T12:24:45.886Z,81.50
2023-01-13T12:27:22.290Z,81.40
2023-01-13T12:29:53.190Z,81.20
2023-01-13T12:32:27.520Z,81.00
2023-01-13T12:35:05.182Z,80.90
2023-01-13T12:37:39.216Z,80.80
2023-01-13T12:40:21.566Z,80.90
2023-01-13T12:43:17.577Z,80.70
2023-01-13T12:45:44.519Z,80.40
2023-01-13T12:49:04.428Z,80.50
2023-01-13T12:51:33.562Z,80.50
2023-01-13T12:54:01.779Z,80.40
2023-01-13T12:56:36.340Z,80.30
2023-01-13T12:59:34.466Z,80.20
2023-01-13T13:02:29.261Z,80.20
2023-01-13T13:05:16.232Z,80.00
2023-01-13T13:07:47.000Z,80.00
2023-01-13T13:10:18.832Z,79.90
2023-01-13T13:13:16.823Z,79.70
2023-01-13T13:15:44.918Z,79.80
2023-01-13T13:18:36.887Z,79.80
2023-01-13T13:21:08.706Z,79.90
2023-01-13T13:23:57.996Z,79.50
2023-01-13T13:26:39.317Z,79.80
2023-01-13T13:29:36.812Z,79.40
2023-01-13T13:32:30.778Z,79.70
2023-01-13T13:35:16.013Z,79.50
2023-01-13T13:38:16.940Z,79.60
2023-01-13T13:41:05.590Z,79.40
2023-01-13T13:44:00.549Z,79.60
2023-01-13T13:46:47.053Z,79.60
2023-01-13T13:49:14.890Z,79.20
2023-01-13T13:51:46.426Z,79.30
2023-01-13T13:54:17.516Z,79.20
2023-01-13T13:56:46.105Z,79.20
2023-01-13T13:59:17.571Z,79.30
2023-01-13T14:01:45.889Z,79.40
2023-01-13T14:04:19.929Z,79.30
2023-01-13T14:06:51.518Z,79.30
2023-01-13T14:09:20.831Z,79.30
2023-01-13T14:12:00.297Z,79.40
2023-01-13T14:14:28.014Z,79.40
2023-01-13T14:16:55.976Z,79.40
2023-01-13T14:19:30.444Z,79.40
2023-01-13T14:22:01.241Z,79.40
2023-01-13T14:24:30.970Z,79.20
2023-01-13T14:27:09.298Z,79.10
2023-01-13T14:29:36.872Z,79.00
2023-01-13T14:32:05.345Z,79.00
2023-01-13T14:34:34.012Z,79.10
2023-01-13T14:37:01.198Z,79.10
2023-01-13T14:39:39.043Z,79.20
2023-01-13T14:42:12.890Z,79.00
2023-01-13T14:44:45.010Z,79.10
2023-01-13T14:47:20.940Z,79.00
2023-01-13T14:49:58.912Z,79.20
2023-01-13T14:52:28.016Z,79.20
2023-01-13T14:55:22.064Z,79.00
2023-01-13T14:57:49.856Z,79.00
2023-01-13T15:00:23.310Z,78.80
2023-01-13T15:03:00.048Z,79.00
2023-01-13T15:05:39.500Z,79.00
2023-01-13T15:08:36.957Z,79.10
2023-01-13T15:11:08.464Z,78.90
2023-01-13T15:13:48.046Z,78.90
2023-01-13T15:16:22.145Z,78.90
2023-01-13T15:18:49.246Z,78.90
2023-01-13T15:21:16.863Z,79.00
2023-01-13T15:23:44.657Z,79.00
2023-01-13T15:26:22.427Z,79.00
2023-01-13T15:28:51.635Z,79.10
2023-01-13T15:31:19.012Z,79.30
2023-01-13T15:33:46.087Z,79.30
2023-01-13T15:36:23.867Z,79.40
2023-01-13T15:38:58.580Z,79.40
2023-01-13T15:41:51.200Z,79.60
2023-01-13T15:44:36.526Z,79.70
2023-01-13T15:47:06.452Z,79.70
2023-01-13T15:49:37.490Z,79.70
2023-01-13T15:52:16.502Z,79.80
2023-01-13T15:54:47.242Z,79.80
2023-01-13T15:57:24.792Z,79.70
2023-01-13T15:59:54.188Z,79.70
2023-01-13T16:02:22.772Z,79.80
2023-01-13T16:04:51.266Z,79.60
2023-01-13T16:07:19.516Z,79.60
2023-01-13T16:09:48.789Z,79.70
2023-01-13T16:12:17.283Z,79.80
2023-01-13T16:14:44.399Z,79.90
2023-01-13T16:17:16.111Z,79.90
2023-01-13T16:19:43.453Z,80.00
2023-01-13T16:22:12.208Z,80.10
2023-01-13T16:24:40.444Z,80.10
2023-01-13T16:27:20.132Z,80.00
2023-01-13T16:29:47.911Z,80.10
2023-01-13T16:32:15.218Z,80.10
2023-01-13T16:34:44.930Z,80.20
2023-01-13T16:37:19.849Z,80.10
2023-01-13T16:39:57.610Z,80.10
2023-01-13T16:42:25.918Z,80.00
2023-01-13T16:44:55.010Z,80.00
2023-01-13T16:47:24.516Z,80.00
2023-01-13T16:49:51.569Z,80.00
2023-01-13T16:52:18.484Z,79.90
2023-01-13T16:54:45.317Z,79.90
2023-01-13T16:57:13.672Z,80.00
2023-01-13T16:59:44.900Z,80.00
2023-01-13T17:02:17.193Z,80.10
2023-01-13T17:04:44.087Z,80.10
2023-01-13T17:07:16.876Z,80.10
2023-01-13T17:09:43.754Z,80.10
2023-01-13T17:12:11.571Z,80.00
2023-01-13T17:14:38.673Z,80.00
2023-01-13T17:17:17.761Z,80.10
2023-01-13T17:19:46.959Z,80.10
2023-01-13T17:22:16.935Z,80.20
2023-01-13T17:24:43.994Z,80.20
2023-01-13T17:27:10.912Z,80.30
2023-01-13T17:29:37.904Z,80.60
2023-01-13T17:32:06.695Z,80.90
2023-01-13T17:34:36.446Z,80.90
2023-01-13T17:37:03.418Z,81.00
2023-01-13T17:39:30.579Z,81.10
2023-01-13T17:41:59.288Z,81.30
2023-01-13T17:44:26.095Z,81.50
2023-01-13T17:46:53.287Z,81.60
2023-01-13T17:49:22.068Z,81.70
2023-01-13T17:51:50.994Z,81.80
2023-01-13T17:54:18.653Z,81.90
2023-01-13T17:56:45.692Z,81.90
2023-01-13T17:59:13.830Z,82.00
2023-01-13T18:01:40.803Z,82.00
2023-01-13T18:04:09.951Z,82.00
2023-01-13T18:06:39.006Z,82.00
2023-01-13T18:09:06.194Z,82.10
2023-01-13T18:11:33.009Z,82.20
2023-01-13T18:14:05.543Z,82.20
2023-01-13T18:16:32.781Z,82.20
2023-01-13T18:19:20.965Z,82.20
2023-01-13T18:22:10.231Z,82.30
2023-01-13T18:24:56.037Z,82.30
2023-01-13T18:27:27.331Z,82.40
2023-01-13T18:29:56.353Z,82.40
2023-01-13T18:32:26.389Z,82.50
2023-01-13T18:35:04.813Z,82.60
2023-01-13T18:37:37.146Z,82.70
2023-01-13T18:40:05.611Z,82.80
2023-01-13T18:42:51.163Z,82.80
2023-01-13T18:45:18.852Z,82.90
2023-01-13T18:47:45.846Z,82.90
2023-01-13T18:50:13.715Z,83.10
2023-01-13T18:52:41.980Z,83.00
2023-01-13T18:55:09.649Z,83.00
2023-01-13T18:57:39.071Z,82.90
2023-01-13T19:00:08.628Z,82.80
2023-01-13T19:02:35.670Z,82.80
2023-01-13T19:05:06.053Z,82.80
2023-01-13T19:07:36.293Z,82.80
2023-01-13T19:10:09.806Z,82.90
2023-01-13T19:12:37.015Z,83.00
2023-01-13T19:15:04.513Z,83.00
2023-01-13T19:17:33.649Z,83.00
2023-01-13T19:20:00.728Z,83.00
2023-01-13T19:22:31.020Z,83.10
2023-01-13T19:25:01.647Z,83.20
2023-01-13T19:27:30.526Z,83.30
2023-01-13T19:30:00.137Z,83.50
2023-01-13T19:32:27.950Z,83.40
2023-01-13T19:34:59.048Z,83.40
2023-01-13T19:37:30.105Z,83.40
2023-01-13T19:39:58.182Z,83.40
2023-01-13T19:42:43.665Z,83.50
2023-01-13T19:45:29.468Z,83.40
2023-01-13T19:47:57.492Z,83.60
2023-01-13T19:50:24.549Z,83.60
2023-01-13T19:52:51.863Z,83.70
2023-01-13T19:55:19.771Z,83.60
2023-01-13T19:57:47.171Z,83.70
2023-01-13T20:00:20.558Z,83.80
2023-01-13T20:02:53.458Z,83.90
2023-01-13T20:05:22.733Z,83.90
2023-01-13T20:07:50.660Z,83.90
2023-01-13T20:10:18.987Z,83.90
2023-01-13T20:12:47.321Z,84.10
2023-01-13T20:15:14.214Z,84.20
2023-01-13T20:17:45.188Z,84.30
2023-01-13T20:20:18.092Z,84.40
2023-01-13T20:22:45.008Z,84.50
2023-01-13T20:25:19.520Z,84.40
2023-01-13T20:27:47.893Z,84.20
2023-01-13T20:30:15.133Z,84.30
2023-01-13T20:32:44.334Z,84.30
2023-01-13T20:35:13.706Z,84.30
2023-01-13T20:37:43.034Z,84.40
2023-01-13T20:40:13.617Z,84.50
2023-01-13T20:42:46.781Z,84.50
2023-01-13T20:45:17.160Z,84.40
2023-01-13T20:47:48.776Z,84.50
2023-01-13T20:50:16.489Z,84.60
2023-01-13T20:52:44.142Z,84.60
2023-01-13T20:55:11.716Z,84.50
2023-01-13T20:57:38.883Z,84.50
2023-01-13T21:00:07.287Z,84.40
2023-01-13T21:02:34.068Z,84.40
2023-01-13T21:05:03.511Z,84.40
2023-01-13T21:07:30.340Z,84.30
2023-01-13T21:09:57.711Z,84.10
2023-01-13T21:12:45.617Z,84.10
2023-01-13T21:15:19.732Z,84.00
2023-01-13T21:18:06.383Z,83.90
2023-01-13T21:20:36.724Z,83.90
2023-01-13T21:23:05.507Z,83.80
2023-01-13T21:25:35.211Z,83.70
2023-01-13T21:28:06.226Z,83.70
2023-01-13T21:30:33.911Z,83.70
2023-01-13T21:33:01.212Z,83.70
2023-01-13T21:35:28.134Z,83.70
2023-01-13T21:37:57.870Z,83.60
2023-01-13T21:40:24.796Z,83.40
2023-01-13T21:43:10.890Z,83.40
2023-01-13T21:45:57.237Z,83.30
2023-01-13T21:48:24.201Z,83.30
2023-01-13T21:50:52.247Z,83.20
2023-01-13T21:53:20.604Z,83.10
2023-01-13T21:55:51.520Z,83.10
2023-01-13T21:58:18.387Z,83.10
2023-01-13T22:00:45.986Z,83.10
2023-01-13T22:03:16.143Z,83.10
2023-01-13T22:05:43.175Z,82.90
2023-01-13T22:08:13.550Z,82.80
2023-01-13T22:10:57.245Z,82.70
2023-01-13T22:13:46.236Z,82.70
2023-01-13T22:16:14.825Z,82.70
2023-01-13T22:18:41.962Z,82.70
2023-01-13T22:21:08.854Z,82.60
2023-01-13T22:23:35.856Z,82.50
2023-01-13T22:26:05.752Z,82.60
2023-01-13T22:28:40.012Z,82.40
2023-01-13T22:31:07.521Z,82.60
2023-01-13T22:33:34.352Z,82.40
2023-01-13T22:36:01.181Z,82.40
2023-01-13T22:38:31.540Z,82.30
2023-01-13T22:40:59.635Z,82.40
2023-01-13T22:43:28.638Z,82.40
2023-01-13T22:46:01.505Z,82.40
2023-01-13T22:48:28.884Z,82.40
2023-01-13T22:50:56.326Z,82.20
2023-01-13T22:53:23.131Z,82.20
2023-01-13T22:55:56.571Z,82.00
2023-01-13T22:58:23.640Z,82.20
2023-01-13T23:00:52.649Z,82.10
2023-01-13T23:03:19.654Z,81.90
2023-01-13T23:05:46.500Z,82.00
2023-01-13T23:08:13.875Z,81.90
2023-01-13T23:10:41.417Z,82.00
2023-01-13T23:13:09.217Z,82.20
2023-01-13T23:15:36.039Z,82.00
2023-01-13T23:18:04.311Z,82.00
2023-01-13T23:20:31.144Z,82.00
2023-01-13T23:22:59.160Z,82.10
2023-01-13T23:25:26.584Z,82.20
2023-01-13T23:27:53.726Z,82.00
2023-01-13T23:30:20.762Z,82.00
2023-01-13T23:32:47.593Z,82.10
2023-01-13T23:35:16.061Z,82.10
2023-01-13T23:37:43.409Z,82.00
2023-01-13T23:40:11.444Z,82.00
2023-01-13T23:42:38.475Z,82.00
2023-01-13T23:45:06.193Z,82.00
2023-01-13T23:47:33.446Z,82.20
2023-01-13T23:50:00.318Z,82.10
2023-01-13T23:52:28.537Z,82.00
2023-01-13T23:54:55.392Z,82.00
2023-01-13T23:57:25.568Z,82.00
2023-01-13T23:59:52.708Z,82.10
